sensor_id;sensor_type;location;lat;lon;timestamp;temperature;humidity
6256;DHT22;3161;48.794;9.784;2022-11-20T00:01:25;7.50;99.90
6256;DHT22;3161;48.794;9.784;2022-11-20T00:03:54;7.50;99.90
6256;DHT22;3161;48.794;9.784;2022-11-20T00:06:22;7.50;99.90
6256;DHT22;3161;48.794;9.784;2022-11-20T00:08:50;7.50;99.90
6256;DHT22;3161;48.794;9.784;2022-11-20T00:11:20;7.50;99.90
6256;DHT22;3161;48.794;9.784;2022-11-20T00:13:50;7.50;99.90
6256;DHT22;3161;48.794;9.784;2022-11-20T00:16:23;7.50;99.90
6256;DHT22;3161;48.794;9.784;2022-11-20T00:18:51;7.60;99.90
6256;DHT22;3161;48.794;9.784;2022-11-20T00:21:24;7.60;99.90
6256;DHT22;3161;48.794;9.784;2022-11-20T00:23:54;7.50;99.90
6256;DHT22;3161;48.794;9.784;2022-11-20T00:26:24;7.50;99.90
6256;DHT22;3161;48.794;9.784;2022-11-20T00:28:54;7.50;99.90
6256;DHT22;3161;48.794;9.784;2022-11-20T00:31:23;7.40;99.90
6256;DHT22;3161;48.794;9.784;2022-11-20T00:33:50;7.40;99.90
6256;DHT22;3161;48.794;9.784;2022-11-20T00:36:21;7.30;99.90
6256;DHT22;3161;48.794;9.784;2022-11-20T00:38:53;7.30;99.90
6256;DHT22;3161;48.794;9.784;2022-11-20T00:41:22;7.30;99.90
6256;DHT22;3161;48.794;9.784;2022-11-20T00:43:51;7.20;99.90
6256;DHT22;3161;48.794;9.784;2022-11-20T00:46:23;7.20;99.90
6256;DHT22;3161;48.794;9.784;2022-11-20T00:48:49;7.10;99.90
6256;DHT22;3161;48.794;9.784;2022-11-20T00:51:19;7.10;99.90
6256;DHT22;3161;48.794;9.784;2022-11-20T00:53:47;7.10;99.90
6256;DHT22;3161;48.794;9.784;2022-11-20T00:56:17;7.00;99.90
6256;DHT22;3161;48.794;9.784;2022-11-20T00:58:47;7.00;99.90
6256;DHT22;3161;48.794;9.784;2022-11-20T01:03:47;6.90;99.90
6256;DHT22;3161;48.794;9.784;2022-11-20T01:08:46;6.90;99.90
6256;DHT22;3161;48.794;9.784;2022-11-20T01:11:22;6.90;99.90
6256;DHT22;3161;48.794;9.784;2022-11-20T01:13:52;6.80;99.90
6256;DHT22;3161;48.794;9.784;2022-11-20T01:16:22;6.80;99.90
6256;DHT22;3161;48.794;9.784;2022-11-20T01:18:52;6.80;99.90
6256;DHT22;3161;48.794;9.784;2022-11-20T01:21:22;6.80;99.90
6256;DHT22;3161;48.794;9.784;2022-11-20T01:23:51;6.80;99.90
6256;DHT22;3161;48.794;9.784;2022-11-20T01:26:24;6.80;99.90
6256;DHT22;3161;48.794;9.784;2022-11-20T01:28:53;6.80;99.90
6256;DHT22;3161;48.794;9.784;2022-11-20T01:31:26;6.80;99.90
6256;DHT22;3161;48.794;9.784;2022-11-20T01:33:57;6.70;99.90
6256;DHT22;3161;48.794;9.784;2022-11-20T01:36:26;6.80;99.90
6256;DHT22;3161;48.794;9.784;2022-11-20T01:38:56;6.80;99.90
6256;DHT22;3161;48.794;9.784;2022-11-20T01:41:26;6.80;99.90
6256;DHT22;3161;48.794;9.784;2022-11-20T01:44:14;6.80;99.90
6256;DHT22;3161;48.794;9.784;2022-11-20T01:46:58;6.80;99.90
6256;DHT22;3161;48.794;9.784;2022-11-20T01:49:34;6.80;99.90
6256;DHT22;3161;48.794;9.784;2022-11-20T01:52:05;6.80;99.90
6256;DHT22;3161;48.794;9.784;2022-11-20T01:54:36;6.80;99.90
6256;DHT22;3161;48.794;9.784;2022-11-20T01:57:06;6.80;99.90
6256;DHT22;3161;48.794;9.784;2022-11-20T01:59:37;6.80;99.90
6256;DHT22;3161;48.794;9.784;2022-11-20T02:02:05;6.80;99.90
6256;DHT22;3161;48.794;9.784;2022-11-20T02:04:33;6.80;99.90
6256;DHT22;3161;48.794;9.784;2022-11-20T02:07:02;6.80;99.90
6256;DHT22;3161;48.794;9.784;2022-11-20T02:09:31;6.70;99.90
6256;DHT22;3161;48.794;9.784;2022-11-20T02:11:59;6.70;99.90
6256;DHT22;3161;48.794;9.784;2022-11-20T02:14:28;6.70;99.90
6256;DHT22;3161;48.794;9.784;2022-11-20T02:16:56;6.60;99.90
6256;DHT22;3161;48.794;9.784;2022-11-20T02:19:31;6.60;99.90
6256;DHT22;3161;48.794;9.784;2022-11-20T02:22:11;6.60;99.90
6256;DHT22;3161;48.794;9.784;2022-11-20T02:24:38;6.60;99.90
6256;DHT22;3161;48.794;9.784;2022-11-20T02:27:14;6.60;99.90
6256;DHT22;3161;48.794;9.784;2022-11-20T02:29:57;6.60;99.90
6256;DHT22;3161;48.794;9.784;2022-11-20T02:32:26;6.60;99.90
6256;DHT22;3161;48.794;9.784;2022-11-20T02:34:54;6.60;99.90
6256;DHT22;3161;48.794;9.784;2022-11-20T02:37:25;6.60;99.90
6256;DHT22;3161;48.794;9.784;2022-11-20T02:39:52;6.60;99.90
6256;DHT22;3161;48.794;9.784;2022-11-20T02:42:20;6.60;99.90
6256;DHT22;3161;48.794;9.784;2022-11-20T02:44:47;6.60;99.90
6256;DHT22;3161;48.794;9.784;2022-11-20T02:47:15;6.50;99.90
6256;DHT22;3161;48.794;9.784;2022-11-20T02:49:43;6.50;99.90
6256;DHT22;3161;48.794;9.784;2022-11-20T02:52:10;6.60;99.90
6256;DHT22;3161;48.794;9.784;2022-11-20T02:54:38;6.60;99.90
6256;DHT22;3161;48.794;9.784;2022-11-20T02:57:05;6.60;99.90
6256;DHT22;3161;48.794;9.784;2022-11-20T02:59:33;6.70;99.90
6256;DHT22;3161;48.794;9.784;2022-11-20T03:02:01;6.70;99.90
6256;DHT22;3161;48.794;9.784;2022-11-20T03:04:28;6.70;99.90
6256;DHT22;3161;48.794;9.784;2022-11-20T03:06:56;6.70;99.90
6256;DHT22;3161;48.794;9.784;2022-11-20T03:09:23;6.80;99.90
6256;DHT22;3161;48.794;9.784;2022-11-20T03:11:51;6.80;99.90
6256;DHT22;3161;48.794;9.784;2022-11-20T03:14:18;6.80;99.90
6256;DHT22;3161;48.794;9.784;2022-11-20T03:16:46;6.80;99.90
6256;DHT22;3161;48.794;9.784;2022-11-20T03:19:13;6.80;99.90
6256;DHT22;3161;48.794;9.784;2022-11-20T03:21:41;6.80;99.90
6256;DHT22;3161;48.794;9.784;2022-11-20T03:24:08;6.80;99.90
6256;DHT22;3161;48.794;9.784;2022-11-20T03:26:36;6.80;99.90
6256;DHT22;3161;48.794;9.784;2022-11-20T03:29:04;6.80;99.90
6256;DHT22;3161;48.794;9.784;2022-11-20T03:31:39;6.90;99.90
6256;DHT22;3161;48.794;9.784;2022-11-20T03:34:03;6.90;99.90
6256;DHT22;3161;48.794;9.784;2022-11-20T03:36:31;6.90;99.90
6256;DHT22;3161;48.794;9.784;2022-11-20T03:38:59;6.80;99.90
6256;DHT22;3161;48.794;9.784;2022-11-20T03:41:29;6.80;99.90
6256;DHT22;3161;48.794;9.784;2022-11-20T03:44:00;6.80;99.90
6256;DHT22;3161;48.794;9.784;2022-11-20T03:46:28;6.80;99.90
6256;DHT22;3161;48.794;9.784;2022-11-20T03:48:56;6.70;99.90
6256;DHT22;3161;48.794;9.784;2022-11-20T03:51:26;6.70;99.90
6256;DHT22;3161;48.794;9.784;2022-11-20T03:53:56;6.70;99.90
6256;DHT22;3161;48.794;9.784;2022-11-20T03:56:32;6.70;99.90
6256;DHT22;3161;48.794;9.784;2022-11-20T03:58:57;6.70;99.90
6256;DHT22;3161;48.794;9.784;2022-11-20T04:01:27;6.70;99.90
6256;DHT22;3161;48.794;9.784;2022-11-20T04:03:56;6.70;99.90
6256;DHT22;3161;48.794;9.784;2022-11-20T04:06:29;6.70;99.90
6256;DHT22;3161;48.794;9.784;2022-11-20T04:08:57;6.70;99.90
6256;DHT22;3161;48.794;9.784;2022-11-20T04:11:31;6.70;99.90
6256;DHT22;3161;48.794;9.784;2022-11-20T04:14:00;6.70;99.90
6256;DHT22;3161;48.794;9.784;2022-11-20T04:16:33;6.70;99.90
6256;DHT22;3161;48.794;9.784;2022-11-20T04:19:03;6.60;99.90
6256;DHT22;3161;48.794;9.784;2022-11-20T04:21:31;6.60;99.90
6256;DHT22;3161;48.794;9.784;2022-11-20T04:23:59;6.60;99.90
6256;DHT22;3161;48.794;9.784;2022-11-20T04:26:28;6.60;99.90
6256;DHT22;3161;48.794;9.784;2022-11-20T04:28:56;6.60;99.90
6256;DHT22;3161;48.794;9.784;2022-11-20T04:31:27;6.50;99.90
6256;DHT22;3161;48.794;9.784;2022-11-20T04:33:58;6.50;99.90
6256;DHT22;3161;48.794;9.784;2022-11-20T04:36:26;6.50;99.90
6256;DHT22;3161;48.794;9.784;2022-11-20T04:38:56;6.50;99.90
6256;DHT22;3161;48.794;9.784;2022-11-20T04:41:26;6.50;99.90
6256;DHT22;3161;48.794;9.784;2022-11-20T04:43:56;6.40;99.90
6256;DHT22;3161;48.794;9.784;2022-11-20T04:46:26;6.40;99.90
6256;DHT22;3161;48.794;9.784;2022-11-20T04:48:54;6.50;99.90
6256;DHT22;3161;48.794;9.784;2022-11-20T04:51:22;6.50;99.90
6256;DHT22;3161;48.794;9.784;2022-11-20T04:53:50;6.50;99.90
6256;DHT22;3161;48.794;9.784;2022-11-20T04:56:18;6.50;99.90
6256;DHT22;3161;48.794;9.784;2022-11-20T04:58:46;6.50;99.90
6256;DHT22;3161;48.794;9.784;2022-11-20T05:01:16;6.40;99.90
6256;DHT22;3161;48.794;9.784;2022-11-20T05:03:44;6.40;99.90
6256;DHT22;3161;48.794;9.784;2022-11-20T05:06:14;6.40;99.90
6256;DHT22;3161;48.794;9.784;2022-11-20T05:08:42;6.40;99.90
6256;DHT22;3161;48.794;9.784;2022-11-20T05:11:18;6.40;99.90
6256;DHT22;3161;48.794;9.784;2022-11-20T05:13:46;6.40;99.90
6256;DHT22;3161;48.794;9.784;2022-11-20T05:16:19;6.40;99.90
6256;DHT22;3161;48.794;9.784;2022-11-20T05:18:48;6.40;99.90
6256;DHT22;3161;48.794;9.784;2022-11-20T05:21:16;6.50;99.90
6256;DHT22;3161;48.794;9.784;2022-11-20T05:23:44;6.50;99.90
6256;DHT22;3161;48.794;9.784;2022-11-20T05:26:15;6.40;99.90
6256;DHT22;3161;48.794;9.784;2022-11-20T05:28:44;6.40;99.90
6256;DHT22;3161;48.794;9.784;2022-11-20T05:31:16;6.50;99.90
6256;DHT22;3161;48.794;9.784;2022-11-20T05:33:44;6.50;99.90
6256;DHT22;3161;48.794;9.784;2022-11-20T05:36:13;6.50;99.90
6256;DHT22;3161;48.794;9.784;2022-11-20T05:38:42;6.50;99.90
6256;DHT22;3161;48.794;9.784;2022-11-20T05:41:12;6.50;99.90
6256;DHT22;3161;48.794;9.784;2022-11-20T05:43:41;6.60;99.90
6256;DHT22;3161;48.794;9.784;2022-11-20T05:46:11;6.60;99.90
6256;DHT22;3161;48.794;9.784;2022-11-20T05:48:40;6.60;99.90
6256;DHT22;3161;48.794;9.784;2022-11-20T05:51:10;6.60;99.90
6256;DHT22;3161;48.794;9.784;2022-11-20T05:53:38;6.60;99.90
6256;DHT22;3161;48.794;9.784;2022-11-20T05:56:21;6.60;99.90
6256;DHT22;3161;48.794;9.784;2022-11-20T05:58:49;6.70;99.90
6256;DHT22;3161;48.794;9.784;2022-11-20T06:01:23;6.70;99.90
6256;DHT22;3161;48.794;9.784;2022-11-20T06:03:47;6.70;99.90
6256;DHT22;3161;48.794;9.784;2022-11-20T06:06:17;6.70;99.90
6256;DHT22;3161;48.794;9.784;2022-11-20T06:08:45;6.70;99.90
6256;DHT22;3161;48.794;9.784;2022-11-20T06:11:15;6.70;99.90
6256;DHT22;3161;48.794;9.784;2022-11-20T06:13:43;6.70;99.90
6256;DHT22;3161;48.794;9.784;2022-11-20T06:16:12;6.70;99.90
6256;DHT22;3161;48.794;9.784;2022-11-20T06:18:40;6.70;99.90
6256;DHT22;3161;48.794;9.784;2022-11-20T06:21:10;6.70;99.90
6256;DHT22;3161;48.794;9.784;2022-11-20T06:23:37;6.70;99.90
6256;DHT22;3161;48.794;9.784;2022-11-20T06:26:14;6.80;99.90
6256;DHT22;3161;48.794;9.784;2022-11-20T06:28:42;6.80;99.90
6256;DHT22;3161;48.794;9.784;2022-11-20T06:31:12;6.80;99.90
6256;DHT22;3161;48.794;9.784;2022-11-20T06:33:40;6.70;99.90
6256;DHT22;3161;48.794;9.784;2022-11-20T06:36:09;6.70;99.90
6256;DHT22;3161;48.794;9.784;2022-11-20T06:38:37;6.70;99.90
6256;DHT22;3161;48.794;9.784;2022-11-20T06:41:06;6.70;99.90
6256;DHT22;3161;48.794;9.784;2022-11-20T06:43:34;6.70;99.90
6256;DHT22;3161;48.794;9.784;2022-11-20T06:46:02;6.70;99.90
6256;DHT22;3161;48.794;9.784;2022-11-20T06:48:30;6.70;99.90
6256;DHT22;3161;48.794;9.784;2022-11-20T06:50:58;6.70;99.90
6256;DHT22;3161;48.794;9.784;2022-11-20T06:53:25;6.70;99.90
6256;DHT22;3161;48.794;9.784;2022-11-20T06:55:55;6.70;99.90
6256;DHT22;3161;48.794;9.784;2022-11-20T06:58:26;6.70;99.90
6256;DHT22;3161;48.794;9.784;2022-11-20T07:00:53;6.80;99.90
6256;DHT22;3161;48.794;9.784;2022-11-20T07:03:21;6.80;99.90
6256;DHT22;3161;48.794;9.784;2022-11-20T07:05:48;6.80;99.90
6256;DHT22;3161;48.794;9.784;2022-11-20T07:08:16;6.80;99.90
6256;DHT22;3161;48.794;9.784;2022-11-20T07:10:43;6.80;99.90
6256;DHT22;3161;48.794;9.784;2022-11-20T07:13:11;6.70;99.90
6256;DHT22;3161;48.794;9.784;2022-11-20T07:15:38;6.70;99.90
6256;DHT22;3161;48.794;9.784;2022-11-20T07:18:06;6.80;99.90
6256;DHT22;3161;48.794;9.784;2022-11-20T07:20:33;6.80;99.90
6256;DHT22;3161;48.794;9.784;2022-11-20T07:23:01;6.90;99.90
6256;DHT22;3161;48.794;9.784;2022-11-20T07:25:29;6.90;99.90
6256;DHT22;3161;48.794;9.784;2022-11-20T07:27:58;6.90;99.90
6256;DHT22;3161;48.794;9.784;2022-11-20T07:30:27;6.90;99.90
6256;DHT22;3161;48.794;9.784;2022-11-20T07:32:56;6.90;99.90
6256;DHT22;3161;48.794;9.784;2022-11-20T07:35:25;6.90;99.90
6256;DHT22;3161;48.794;9.784;2022-11-20T07:38:12;6.90;99.90
6256;DHT22;3161;48.794;9.784;2022-11-20T07:40:40;6.90;99.90
6256;DHT22;3161;48.794;9.784;2022-11-20T07:43:07;6.90;99.90
6256;DHT22;3161;48.794;9.784;2022-11-20T07:45:35;6.90;99.90
6256;DHT22;3161;48.794;9.784;2022-11-20T07:48:03;6.90;99.90
6256;DHT22;3161;48.794;9.784;2022-11-20T07:50:30;6.90;99.90
6256;DHT22;3161;48.794;9.784;2022-11-20T07:53:03;6.90;99.90
6256;DHT22;3161;48.794;9.784;2022-11-20T07:55:31;6.90;99.90
6256;DHT22;3161;48.794;9.784;2022-11-20T07:57:59;7.00;99.90
6256;DHT22;3161;48.794;9.784;2022-11-20T08:00:27;7.00;99.90
6256;DHT22;3161;48.794;9.784;2022-11-20T08:02:55;7.00;99.90
6256;DHT22;3161;48.794;9.784;2022-11-20T08:05:22;7.00;99.90
6256;DHT22;3161;48.794;9.784;2022-11-20T08:07:50;7.10;99.90
6256;DHT22;3161;48.794;9.784;2022-11-20T08:10:17;7.10;99.90
6256;DHT22;3161;48.794;9.784;2022-11-20T08:12:49;7.10;99.90
6256;DHT22;3161;48.794;9.784;2022-11-20T08:15:36;7.10;99.90
6256;DHT22;3161;48.794;9.784;2022-11-20T08:18:06;7.10;99.90
6256;DHT22;3161;48.794;9.784;2022-11-20T08:20:35;7.10;99.90
6256;DHT22;3161;48.794;9.784;2022-11-20T08:23:05;7.20;99.90
6256;DHT22;3161;48.794;9.784;2022-11-20T08:25:34;7.10;99.90
6256;DHT22;3161;48.794;9.784;2022-11-20T08:28:04;7.20;99.90
6256;DHT22;3161;48.794;9.784;2022-11-20T08:30:33;7.20;99.90
6256;DHT22;3161;48.794;9.784;2022-11-20T08:33:03;7.20;99.90
6256;DHT22;3161;48.794;9.784;2022-11-20T08:35:38;7.30;99.90
6256;DHT22;3161;48.794;9.784;2022-11-20T08:38:08;7.30;99.90
6256;DHT22;3161;48.794;9.784;2022-11-20T08:40:36;7.30;99.90
6256;DHT22;3161;48.794;9.784;2022-11-20T08:43:03;7.40;99.90
6256;DHT22;3161;48.794;9.784;2022-11-20T08:45:31;7.30;99.90
6256;DHT22;3161;48.794;9.784;2022-11-20T08:48:02;7.40;99.90
6256;DHT22;3161;48.794;9.784;2022-11-20T08:50:30;7.40;99.90
6256;DHT22;3161;48.794;9.784;2022-11-20T08:53:05;7.30;99.90
6256;DHT22;3161;48.794;9.784;2022-11-20T08:55:32;7.30;99.90
6256;DHT22;3161;48.794;9.784;2022-11-20T08:58:03;7.30;99.90
6256;DHT22;3161;48.794;9.784;2022-11-20T09:00:32;7.30;99.90
6256;DHT22;3161;48.794;9.784;2022-11-20T09:03:00;7.40;99.90
6256;DHT22;3161;48.794;9.784;2022-11-20T09:05:28;7.40;99.90
6256;DHT22;3161;48.794;9.784;2022-11-20T09:07:59;7.40;99.90
6256;DHT22;3161;48.794;9.784;2022-11-20T09:10:27;7.40;99.90
6256;DHT22;3161;48.794;9.784;2022-11-20T09:12:55;7.50;99.90
6256;DHT22;3161;48.794;9.784;2022-11-20T09:15:23;7.50;99.90
6256;DHT22;3161;48.794;9.784;2022-11-20T09:17:53;7.50;99.90
6256;DHT22;3161;48.794;9.784;2022-11-20T09:20:21;7.60;99.90
6256;DHT22;3161;48.794;9.784;2022-11-20T09:22:49;7.60;99.90
6256;DHT22;3161;48.794;9.784;2022-11-20T09:25:22;7.60;99.90
6256;DHT22;3161;48.794;9.784;2022-11-20T09:27:55;7.60;99.90
6256;DHT22;3161;48.794;9.784;2022-11-20T09:30:22;7.60;99.90
6256;DHT22;3161;48.794;9.784;2022-11-20T09:32:50;7.70;99.90
6256;DHT22;3161;48.794;9.784;2022-11-20T09:35:18;7.70;99.90
6256;DHT22;3161;48.794;9.784;2022-11-20T09:37:45;7.70;99.90
6256;DHT22;3161;48.794;9.784;2022-11-20T09:40:24;7.70;99.90
6256;DHT22;3161;48.794;9.784;2022-11-20T09:43:03;7.70;99.90
6256;DHT22;3161;48.794;9.784;2022-11-20T09:51:02;7.80;99.90
6256;DHT22;3161;48.794;9.784;2022-11-20T09:54:06;7.80;99.90
6256;DHT22;3161;48.794;9.784;2022-11-20T09:56:15;7.80;99.90
6256;DHT22;3161;48.794;9.784;2022-11-20T09:58:55;7.80;99.90
6256;DHT22;3161;48.794;9.784;2022-11-20T10:01:36;7.80;99.90
6256;DHT22;3161;48.794;9.784;2022-11-20T10:04:06;7.90;99.90
6256;DHT22;3161;48.794;9.784;2022-11-20T10:06:39;7.80;99.90
6256;DHT22;3161;48.794;9.784;2022-11-20T10:12:00;7.70;99.90
6256;DHT22;3161;48.794;9.784;2022-11-20T10:17:37;7.70;99.90
6256;DHT22;3161;48.794;9.784;2022-11-20T10:28:32;7.50;99.90
6256;DHT22;3161;48.794;9.784;2022-11-20T10:31:03;7.60;99.90
6256;DHT22;3161;48.794;9.784;2022-11-20T10:33:36;7.50;99.90
6256;DHT22;3161;48.794;9.784;2022-11-20T10:38:40;7.60;99.90
6256;DHT22;3161;48.794;9.784;2022-11-20T10:41:13;7.60;99.90
6256;DHT22;3161;48.794;9.784;2022-11-20T10:46:32;7.60;99.90
6256;DHT22;3161;48.794;9.784;2022-11-20T10:48:58;7.70;99.90
6256;DHT22;3161;48.794;9.784;2022-11-20T10:54:17;7.70;99.90
6256;DHT22;3161;48.794;9.784;2022-11-20T10:56:46;7.60;99.90
6256;DHT22;3161;48.794;9.784;2022-11-20T10:59:52;7.60;99.90
6256;DHT22;3161;48.794;9.784;2022-11-20T11:04:49;7.50;99.90
6256;DHT22;3161;48.794;9.784;2022-11-20T11:07:25;7.50;99.90
6256;DHT22;3161;48.794;9.784;2022-11-20T11:09:54;7.50;99.90
6256;DHT22;3161;48.794;9.784;2022-11-20T11:12:25;7.50;99.90
6256;DHT22;3161;48.794;9.784;2022-11-20T11:14:54;7.40;99.90
6256;DHT22;3161;48.794;9.784;2022-11-20T11:17:31;7.40;99.90
6256;DHT22;3161;48.794;9.784;2022-11-20T11:20:00;7.30;99.90
6256;DHT22;3161;48.794;9.784;2022-11-20T11:22:30;7.30;99.90
6256;DHT22;3161;48.794;9.784;2022-11-20T11:24:58;7.40;99.90
6256;DHT22;3161;48.794;9.784;2022-11-20T11:27:26;7.40;99.90
6256;DHT22;3161;48.794;9.784;2022-11-20T11:30:16;7.40;99.90
6256;DHT22;3161;48.794;9.784;2022-11-20T11:32:40;7.40;99.90
6256;DHT22;3161;48.794;9.784;2022-11-20T11:35:19;7.50;99.90
6256;DHT22;3161;48.794;9.784;2022-11-20T11:37:47;7.40;99.90
6256;DHT22;3161;48.794;9.784;2022-11-20T11:40:17;7.40;99.90
6256;DHT22;3161;48.794;9.784;2022-11-20T11:42:50;7.50;99.90
6256;DHT22;3161;48.794;9.784;2022-11-20T11:45:18;7.40;99.90
6256;DHT22;3161;48.794;9.784;2022-11-20T11:47:49;7.40;99.90
6256;DHT22;3161;48.794;9.784;2022-11-20T11:50:23;7.50;99.90
6256;DHT22;3161;48.794;9.784;2022-11-20T11:53:17;7.40;99.90
6256;DHT22;3161;48.794;9.784;2022-11-20T11:55:57;7.40;99.90
6256;DHT22;3161;48.794;9.784;2022-11-20T11:58:49;7.40;99.90
6256;DHT22;3161;48.794;9.784;2022-11-20T12:01:21;7.40;99.90
6256;DHT22;3161;48.794;9.784;2022-11-20T12:06:42;7.40;99.90
6256;DHT22;3161;48.794;9.784;2022-11-20T12:09:20;7.30;99.90
6256;DHT22;3161;48.794;9.784;2022-11-20T12:11:58;7.30;99.90
6256;DHT22;3161;48.794;9.784;2022-11-20T12:14:34;7.30;99.90
6256;DHT22;3161;48.794;9.784;2022-11-20T12:17:02;7.30;99.90
6256;DHT22;3161;48.794;9.784;2022-11-20T12:19:31;7.40;99.90
6256;DHT22;3161;48.794;9.784;2022-11-20T12:22:26;7.40;99.90
6256;DHT22;3161;48.794;9.784;2022-11-20T12:25:18;7.50;99.90
6256;DHT22;3161;48.794;9.784;2022-11-20T12:30:28;8.00;99.90
6256;DHT22;3161;48.794;9.784;2022-11-20T12:33:18;8.30;99.90
6256;DHT22;3161;48.794;9.784;2022-11-20T12:53:10;10.20;99.90
6256;DHT22;3161;48.794;9.784;2022-11-20T13:03:52;10.50;99.90
6256;DHT22;3161;48.794;9.784;2022-11-20T13:06:21;10.30;99.90
6256;DHT22;3161;48.794;9.784;2022-11-20T13:08:52;10.30;99.90
6256;DHT22;3161;48.794;9.784;2022-11-20T13:11:25;10.60;99.90
6256;DHT22;3161;48.794;9.784;2022-11-20T13:19:26;13.50;99.90
6256;DHT22;3161;48.794;9.784;2022-11-20T13:21:55;14.00;99.90
6256;DHT22;3161;48.794;9.784;2022-11-20T13:24:25;13.60;99.90
6256;DHT22;3161;48.794;9.784;2022-11-20T13:29:44;12.30;99.90
6256;DHT22;3161;48.794;9.784;2022-11-20T13:32:17;11.70;99.90
6256;DHT22;3161;48.794;9.784;2022-11-20T13:37:33;10.80;99.90
6256;DHT22;3161;48.794;9.784;2022-11-20T13:40:12;10.50;99.90
6256;DHT22;3161;48.794;9.784;2022-11-20T13:42:45;10.20;99.90
6256;DHT22;3161;48.794;9.784;2022-11-20T13:45:25;10.00;99.90
6256;DHT22;3161;48.794;9.784;2022-11-20T13:47:54;9.80;99.90
6256;DHT22;3161;48.794;9.784;2022-11-20T13:53:16;9.80;99.90
6256;DHT22;3161;48.794;9.784;2022-11-20T13:55:43;9.70;99.90
6256;DHT22;3161;48.794;9.784;2022-11-20T13:58:44;9.70;99.90
6256;DHT22;3161;48.794;9.784;2022-11-20T14:01:23;9.70;99.90
6256;DHT22;3161;48.794;9.784;2022-11-20T14:03:53;9.60;99.90
6256;DHT22;3161;48.794;9.784;2022-11-20T14:06:34;9.70;99.90
6256;DHT22;3161;48.794;9.784;2022-11-20T14:08:58;9.70;99.90
6256;DHT22;3161;48.794;9.784;2022-11-20T14:11:28;9.70;99.90
6256;DHT22;3161;48.794;9.784;2022-11-20T14:14:17;9.70;99.90
6256;DHT22;3161;48.794;9.784;2022-11-20T14:16:46;9.60;99.90
6256;DHT22;3161;48.794;9.784;2022-11-20T14:19:25;9.40;99.90
6256;DHT22;3161;48.794;9.784;2022-11-20T14:22:07;9.30;99.90
6256;DHT22;3161;48.794;9.784;2022-11-20T14:24:25;9.20;99.90
6256;DHT22;3161;48.794;9.784;2022-11-20T14:26:54;9.10;99.90
6256;DHT22;3161;48.794;9.784;2022-11-20T14:29:33;9.10;99.90
6256;DHT22;3161;48.794;9.784;2022-11-20T14:31:56;9.10;99.90
6256;DHT22;3161;48.794;9.784;2022-11-20T14:34:26;9.20;99.90
6256;DHT22;3161;48.794;9.784;2022-11-20T14:37:01;9.20;99.90
6256;DHT22;3161;48.794;9.784;2022-11-20T14:41:58;9.10;99.90
6256;DHT22;3161;48.794;9.784;2022-11-20T14:44:33;9.10;99.90
6256;DHT22;3161;48.794;9.784;2022-11-20T14:47:03;9.10;99.90
6256;DHT22;3161;48.794;9.784;2022-11-20T14:49:32;9.10;99.90
6256;DHT22;3161;48.794;9.784;2022-11-20T14:52:01;9.10;99.90
6256;DHT22;3161;48.794;9.784;2022-11-20T14:54:29;9.00;99.90
6256;DHT22;3161;48.794;9.784;2022-11-20T14:56:59;8.90;99.90
6256;DHT22;3161;48.794;9.784;2022-11-20T14:59:30;8.90;99.90
6256;DHT22;3161;48.794;9.784;2022-11-20T15:02:07;8.80;99.90
6256;DHT22;3161;48.794;9.784;2022-11-20T15:04:48;8.80;99.90
6256;DHT22;3161;48.794;9.784;2022-11-20T15:07:26;8.70;99.90
6256;DHT22;3161;48.794;9.784;2022-11-20T15:12:36;8.40;99.90
6256;DHT22;3161;48.794;9.784;2022-11-20T15:15:05;8.30;99.90
6256;DHT22;3161;48.794;9.784;2022-11-20T15:17:34;8.20;99.90
6256;DHT22;3161;48.794;9.784;2022-11-20T15:20:05;8.10;99.90
6256;DHT22;3161;48.794;9.784;2022-11-20T15:22:34;8.00;99.90
6256;DHT22;3161;48.794;9.784;2022-11-20T15:25:01;8.00;99.90
6256;DHT22;3161;48.794;9.784;2022-11-20T15:27:29;7.90;99.90
6256;DHT22;3161;48.794;9.784;2022-11-20T15:29:56;7.90;99.90
6256;DHT22;3161;48.794;9.784;2022-11-20T15:32:24;7.90;99.90
6256;DHT22;3161;48.794;9.784;2022-11-20T15:34:51;7.90;99.90
6256;DHT22;3161;48.794;9.784;2022-11-20T15:37:19;7.90;99.90
6256;DHT22;3161;48.794;9.784;2022-11-20T15:39:46;7.90;99.90
6256;DHT22;3161;48.794;9.784;2022-11-20T15:42:14;7.90;99.90
6256;DHT22;3161;48.794;9.784;2022-11-20T15:44:41;7.90;99.90
6256;DHT22;3161;48.794;9.784;2022-11-20T15:47:09;7.90;99.90
6256;DHT22;3161;48.794;9.784;2022-11-20T15:49:37;7.90;99.90
6256;DHT22;3161;48.794;9.784;2022-11-20T15:52:04;7.90;99.90
6256;DHT22;3161;48.794;9.784;2022-11-20T15:54:32;7.90;99.90
6256;DHT22;3161;48.794;9.784;2022-11-20T15:56:59;7.80;99.90
6256;DHT22;3161;48.794;9.784;2022-11-20T15:59:28;7.90;99.90
6256;DHT22;3161;48.794;9.784;2022-11-20T16:01:56;7.80;99.90
6256;DHT22;3161;48.794;9.784;2022-11-20T16:04:23;7.80;99.90
6256;DHT22;3161;48.794;9.784;2022-11-20T16:06:51;7.80;99.90
6256;DHT22;3161;48.794;9.784;2022-11-20T16:09:19;7.80;99.90
6256;DHT22;3161;48.794;9.784;2022-11-20T16:11:46;7.80;99.90
6256;DHT22;3161;48.794;9.784;2022-11-20T16:14:14;7.80;99.90
6256;DHT22;3161;48.794;9.784;2022-11-20T16:16:59;7.80;99.90
6256;DHT22;3161;48.794;9.784;2022-11-20T16:19:28;7.70;99.90
6256;DHT22;3161;48.794;9.784;2022-11-20T16:21:57;7.80;99.90
6256;DHT22;3161;48.794;9.784;2022-11-20T16:24:26;7.80;99.90
6256;DHT22;3161;48.794;9.784;2022-11-20T16:26:54;7.70;99.90
6256;DHT22;3161;48.794;9.784;2022-11-20T16:29:22;7.60;99.90
6256;DHT22;3161;48.794;9.784;2022-11-20T16:31:50;7.60;99.90
6256;DHT22;3161;48.794;9.784;2022-11-20T16:34:17;7.60;99.90
6256;DHT22;3161;48.794;9.784;2022-11-20T16:36:45;7.60;99.90
6256;DHT22;3161;48.794;9.784;2022-11-20T16:39:13;7.60;99.90
6256;DHT22;3161;48.794;9.784;2022-11-20T16:41:41;7.50;99.90
6256;DHT22;3161;48.794;9.784;2022-11-20T16:44:09;7.50;99.90
6256;DHT22;3161;48.794;9.784;2022-11-20T16:46:38;7.50;99.90
6256;DHT22;3161;48.794;9.784;2022-11-20T16:49:10;7.50;99.90
6256;DHT22;3161;48.794;9.784;2022-11-20T16:51:36;7.40;99.90
6256;DHT22;3161;48.794;9.784;2022-11-20T16:54:05;7.40;99.90
6256;DHT22;3161;48.794;9.784;2022-11-20T16:56:33;7.30;99.90
6256;DHT22;3161;48.794;9.784;2022-11-20T16:59:02;7.30;99.90
6256;DHT22;3161;48.794;9.784;2022-11-20T17:01:30;7.30;99.90
6256;DHT22;3161;48.794;9.784;2022-11-20T17:04:04;7.20;99.90
6256;DHT22;3161;48.794;9.784;2022-11-20T17:06:31;7.20;99.90
6256;DHT22;3161;48.794;9.784;2022-11-20T17:08:59;7.20;99.90
6256;DHT22;3161;48.794;9.784;2022-11-20T17:11:27;7.10;99.90
6256;DHT22;3161;48.794;9.784;2022-11-20T17:13:56;7.10;99.90
6256;DHT22;3161;48.794;9.784;2022-11-20T17:16:26;7.10;99.90
6256;DHT22;3161;48.794;9.784;2022-11-20T17:18:55;7.10;99.90
6256;DHT22;3161;48.794;9.784;2022-11-20T17:21:23;7.10;99.90
6256;DHT22;3161;48.794;9.784;2022-11-20T17:23:52;7.10;99.90
6256;DHT22;3161;48.794;9.784;2022-11-20T17:26:21;7.00;99.90
6256;DHT22;3161;48.794;9.784;2022-11-20T17:28:54;7.00;99.90
6256;DHT22;3161;48.794;9.784;2022-11-20T17:31:24;6.90;99.90
6256;DHT22;3161;48.794;9.784;2022-11-20T17:33:51;6.90;99.90
6256;DHT22;3161;48.794;9.784;2022-11-20T17:36:20;6.90;99.90
6256;DHT22;3161;48.794;9.784;2022-11-20T17:38:47;6.90;99.90
6256;DHT22;3161;48.794;9.784;2022-11-20T17:41:17;6.80;99.90
6256;DHT22;3161;48.794;9.784;2022-11-20T17:43:45;6.80;99.90
6256;DHT22;3161;48.794;9.784;2022-11-20T17:46:18;6.70;99.90
6256;DHT22;3161;48.794;9.784;2022-11-20T17:48:46;6.70;99.90
6256;DHT22;3161;48.794;9.784;2022-11-20T17:51:24;6.60;99.90
6256;DHT22;3161;48.794;9.784;2022-11-20T17:53:50;6.60;99.90
6256;DHT22;3161;48.794;9.784;2022-11-20T17:56:19;6.50;99.90
6256;DHT22;3161;48.794;9.784;2022-11-20T17:59:10;6.50;99.90
6256;DHT22;3161;48.794;9.784;2022-11-20T18:01:39;6.50;99.90
6256;DHT22;3161;48.794;9.784;2022-11-20T18:04:08;6.50;99.90